Time;durP1;ratioP1;P1;durP2;ratioP2;P2;SDS_P1;SDS_P2;PMS_P1;PMS_P2;Temp;Humidity;BMP_temperature;BMP_pressure;BME280_temperature;BME280_humidity;BME280_pressure;Samples;Min_cycle;Max_cycle;Signal;HPM_P1;HPM_P2
2022/11/08 00:02:28;;;;;;;11.63;2.90;;;14.60;99.90;;;;;;5006679;28;20048;-81
2022/11/08 00:04:55;;;;;;;11.00;2.85;;;14.60;99.90;;;;;;5006364;28;20121;-81
2022/11/08 00:15:38;;;;;;;12.55;3.08;;;14.50;99.90;;;;;;5014662;28;20384;-81
2022/11/08 00:18:07;;;;;;;9.68;2.58;;;14.50;99.90;;;;;;4999126;28;20140;-81
2022/11/08 00:20:35;;;;;;;13.30;2.97;;;14.50;99.90;;;;;;4999395;28;20499;-81
2022/11/08 00:23:02;;;;;;;10.25;3.10;;;14.50;99.90;;;;;;5000975;28;20167;-81
2022/11/08 00:25:29;;;;;;;8.40;2.80;;;14.50;99.90;;;;;;4996630;28;21800;-81
2022/11/08 00:27:57;;;;;;;13.77;3.03;;;14.50;99.90;;;;;;5004985;28;20042;-81
2022/11/08 00:30:24;;;;;;;14.75;3.40;;;14.50;99.90;;;;;;5005301;28;20057;-81
2022/11/08 00:32:50;;;;;;;9.48;3.03;;;14.50;99.90;;;;;;5007323;28;20080;-81
2022/11/08 00:35:19;;;;;;;10.32;3.17;;;14.50;99.90;;;;;;5006109;28;20041;-81
2022/11/08 00:37:46;;;;;;;14.93;3.42;;;14.50;99.90;;;;;;5004763;28;20056;-81
2022/11/08 00:40:13;;;;;;;9.40;3.08;;;14.50;99.90;;;;;;5005103;28;20049;-81
2022/11/08 00:42:40;;;;;;;16.58;2.83;;;14.60;99.90;;;;;;5007549;28;20045;-81
2022/11/08 00:45:07;;;;;;;13.20;3.08;;;14.60;99.90;;;;;;4999322;28;20064;-81
2022/11/08 00:47:34;;;;;;;8.85;2.90;;;14.60;99.90;;;;;;5000021;28;20046;-81
2022/11/08 00:50:01;;;;;;;12.95;2.97;;;14.60;99.90;;;;;;5001360;28;20050;-81
2022/11/08 00:52:29;;;;;;;13.18;2.63;;;14.60;99.90;;;;;;5006209;28;20128;-81
2022/11/08 00:54:56;;;;;;;8.25;2.58;;;14.60;99.90;;;;;;5005244;28;20049;-81
2022/11/08 00:57:23;;;;;;;10.20;2.72;;;14.60;99.90;;;;;;5005066;28;20064;-81
2022/11/08 00:59:50;;;;;;;8.57;2.30;;;14.60;99.90;;;;;;5006632;28;20045;-81
2022/11/08 01:02:17;;;;;;;10.93;2.58;;;14.70;99.90;;;;;;5005902;28;20565;-81
2022/11/08 01:04:46;;;;;;;9.00;2.72;;;14.70;99.90;;;;;;5004538;28;20042;-81
2022/11/08 01:07:14;;;;;;;8.23;2.78;;;14.70;99.90;;;;;;4999136;28;20064;-81
2022/11/08 01:09:42;;;;;;;12.50;2.45;;;14.70;99.90;;;;;;4998703;28;20546;-80
2022/11/08 01:12:09;;;;;;;12.48;2.65;;;14.70;99.90;;;;;;5000252;28;20045;-81
2022/11/08 01:14:37;;;;;;;10.10;2.60;;;14.70;99.90;;;;;;4996550;28;20046;-81
2022/11/08 01:17:04;;;;;;;8.88;2.20;;;14.80;99.90;;;;;;4999620;28;20666;-81
2022/11/08 01:19:30;;;;;;;6.93;2.10;;;14.70;99.90;;;;;;5000175;28;20045;-81
2022/11/08 01:21:57;;;;;;;10.57;2.47;;;14.70;99.90;;;;;;5003542;28;20046;-81
2022/11/08 01:24:24;;;;;;;9.65;2.47;;;14.70;99.90;;;;;;5004572;28;20525;-81
2022/11/08 01:26:52;;;;;;;12.07;2.50;;;14.80;99.90;;;;;;5004327;28;20050;-83
2022/11/08 01:29:19;;;;;;;7.10;2.33;;;14.80;99.90;;;;;;5005037;28;20522;-81
2022/11/08 01:31:49;;;;;;;9.57;2.80;;;14.80;99.90;;;;;;5003447;28;20056;-81
2022/11/08 01:34:19;;;;;;;7.40;2.22;;;14.80;99.90;;;;;;5004581;28;20034;-81
2022/11/08 01:36:46;;;;;;;11.45;2.10;;;14.80;99.90;;;;;;5001074;28;20566;-81
2022/11/08 01:39:14;;;;;;;12.00;2.45;;;14.80;99.90;;;;;;5006035;28;20045;-82
2022/11/08 01:41:40;;;;;;;9.43;2.25;;;14.80;99.90;;;;;;5006541;28;20131;-81
2022/11/08 01:44:14;;;;;;;13.50;2.65;;;14.80;99.90;;;;;;5005019;28;20040;-81
2022/11/08 01:46:44;;;;;;;10.07;2.30;;;14.80;99.90;;;;;;5005563;28;20045;-81
2022/11/08 01:49:18;;;;;;;5.40;2.00;;;14.90;99.90;;;;;;5006154;28;20145;-81
2022/11/08 01:51:49;;;;;;;5.75;1.70;;;14.90;99.90;;;;;;5001443;28;20038;-81
2022/11/08 01:54:20;;;;;;;13.63;1.90;;;14.90;99.90;;;;;;5002265;28;20483;-81
2022/11/08 01:56:47;;;;;;;10.02;2.13;;;14.80;99.90;;;;;;4997718;28;20038;-81
2022/11/08 01:59:16;;;;;;;9.73;2.30;;;14.90;99.90;;;;;;4999364;28;20045;-81
2022/11/08 02:01:43;;;;;;;7.60;2.00;;;14.90;99.90;;;;;;4998974;28;20046;-82
2022/11/08 02:04:11;;;;;;;7.82;2.00;;;14.90;99.90;;;;;;4997915;28;20068;-81
2022/11/08 02:06:41;;;;;;;8.20;2.33;;;14.90;99.90;;;;;;4997826;28;20598;-81
2022/11/08 02:09:09;;;;;;;15.98;2.67;;;14.90;99.90;;;;;;4998893;28;20053;-81
2022/11/08 02:11:37;;;;;;;9.10;2.35;;;14.90;99.90;;;;;;4999711;28;20054;-82
2022/11/08 02:14:04;;;;;;;9.65;1.73;;;14.90;99.90;;;;;;4998443;28;20069;-81
2022/11/08 02:16:32;;;;;;;8.70;2.10;;;14.90;99.90;;;;;;4997863;28;20521;-83
2022/11/08 02:18:59;;;;;;;10.93;2.28;;;14.90;99.90;;;;;;4995671;28;20499;-81
2022/11/08 02:21:28;;;;;;;6.90;2.03;;;15.00;99.90;;;;;;4995959;28;20056;-81
2022/11/08 02:23:57;;;;;;;9.70;2.47;;;15.00;99.90;;;;;;4999132;28;20049;-81
2022/11/08 02:26:26;;;;;;;10.70;2.35;;;14.90;99.90;;;;;;5004458;28;20068;-81
2022/11/08 02:28:52;;;;;;;7.10;1.70;;;15.00;99.90;;;;;;5004082;28;20413;-82
2022/11/08 02:31:20;;;;;;;9.43;2.28;;;15.00;99.90;;;;;;5000901;28;20046;-81
2022/11/08 02:33:48;;;;;;;7.35;2.03;;;15.00;99.90;;;;;;5005103;28;20048;-81
2022/11/08 02:36:17;;;;;;;7.82;2.08;;;15.00;99.90;;;;;;5003587;28;20057;-81
2022/11/08 02:38:47;;;;;;;8.15;2.30;;;15.00;99.90;;;;;;5005617;28;20109;-82
2022/11/08 02:41:15;;;;;;;6.78;1.85;;;14.90;99.90;;;;;;4998516;28;20046;-81
2022/11/08 02:43:42;;;;;;;10.93;2.47;;;14.90;99.90;;;;;;4998360;28;20050;-81
2022/11/08 02:46:09;;;;;;;7.68;2.00;;;14.90;99.90;;;;;;4995658;28;20056;-81
2022/11/08 02:48:36;;;;;;;5.82;1.60;;;14.90;99.90;;;;;;4998924;28;20037;-81
2022/11/08 02:51:03;;;;;;;6.82;2.13;;;14.90;99.90;;;;;;5000768;28;20046;-80
2022/11/08 02:53:33;;;;;;;5.75;1.95;;;14.90;99.90;;;;;;5040437;22;20053;-87
2022/11/08 02:56:03;;;;;;;4.63;1.80;;;14.90;99.90;;;;;;5020388;28;20042;-86
2022/11/08 02:58:35;;;;;;;6.57;2.08;;;14.80;99.90;;;;;;5023976;28;20144;-86
2022/11/08 03:01:01;;;;;;;13.52;2.45;;;14.80;99.90;;;;;;5021159;28;20498;-87
2022/11/08 03:03:28;;;;;;;8.38;2.03;;;14.70;99.90;;;;;;5024426;28;20061;-87
2022/11/08 03:05:56;;;;;;;10.15;2.33;;;14.70;99.90;;;;;;5026331;28;20034;-87
2022/11/08 03:08:23;;;;;;;12.00;2.15;;;14.70;99.90;;;;;;5026250;28;20056;-86
2022/11/08 03:10:50;;;;;;;5.70;1.95;;;14.70;99.90;;;;;;5025049;28;20454;-86
2022/11/08 03:13:17;;;;;;;10.27;2.17;;;14.70;99.90;;;;;;5028596;28;20049;-87
2022/11/08 03:15:45;;;;;;;5.95;1.90;;;14.70;99.90;;;;;;5026621;28;20060;-87
2022/11/08 03:18:12;;;;;;;5.38;1.83;;;14.60;99.90;;;;;;5027114;28;20136;-86
2022/11/08 03:20:39;;;;;;;8.70;2.03;;;14.60;99.90;;;;;;5021191;28;20060;-86
2022/11/08 03:23:06;;;;;;;4.88;1.80;;;14.60;99.90;;;;;;5027360;28;20045;-86
2022/11/08 03:25:34;;;;;;;8.38;2.42;;;14.60;99.90;;;;;;5023463;28;20049;-86
2022/11/08 03:28:04;;;;;;;10.10;2.30;;;14.60;99.90;;;;;;5019851;28;20033;-86
2022/11/08 03:30:31;;;;;;;6.75;2.08;;;14.50;99.90;;;;;;5019842;28;20497;-86
2022/11/08 03:32:59;;;;;;;9.60;1.92;;;14.50;99.90;;;;;;5017836;28;20795;-86
2022/11/08 03:35:26;;;;;;;7.32;1.90;;;14.50;99.90;;;;;;5015813;28;20048;-87
2022/11/08 03:37:54;;;;;;;6.70;1.85;;;14.50;99.90;;;;;;5019994;28;20051;-87
2022/11/08 03:40:21;;;;;;;9.13;2.00;;;14.50;99.90;;;;;;5023809;28;20064;-86
2022/11/08 03:42:48;;;;;;;8.63;2.10;;;14.50;99.90;;;;;;5027721;28;20037;-86
2022/11/08 03:45:16;;;;;;;9.65;2.13;;;14.40;99.90;;;;;;5026275;28;20045;-86
2022/11/08 03:47:45;;;;;;;7.25;1.98;;;14.50;99.90;;;;;;5026537;28;20064;-86
2022/11/08 03:50:14;;;;;;;9.07;2.17;;;14.50;99.90;;;;;;5027492;28;20038;-87
2022/11/08 03:52:41;;;;;;;7.90;2.25;;;14.50;99.90;;;;;;5017204;28;20056;-87
2022/11/08 03:55:10;;;;;;;7.80;2.22;;;14.50;99.90;;;;;;5025075;28;20387;-86
2022/11/08 03:57:37;;;;;;;9.07;2.47;;;14.50;99.90;;;;;;5024028;28;20056;-86
2022/11/08 04:00:06;;;;;;;9.32;2.05;;;14.50;99.90;;;;;;5018274;28;20638;-86
2022/11/08 04:02:38;;;;;;;6.03;2.30;;;14.50;99.90;;;;;;5019861;28;20049;-86
2022/11/08 04:05:05;;;;;;;10.18;2.50;;;14.40;99.90;;;;;;5017057;28;20503;-87
2022/11/08 04:07:34;;;;;;;6.50;2.13;;;14.40;99.90;;;;;;5019599;28;20064;-86
2022/11/08 04:10:03;;;;;;;7.07;2.33;;;14.30;99.90;;;;;;5015722;28;20048;-87
2022/11/08 04:15:18;;;;;;;8.55;2.05;;;14.30;99.90;;;;;;5016205;28;20053;-87
2022/11/08 04:23:19;;;;;;;6.72;2.17;;;14.30;99.90;;;;;;5019581;28;20092;-86
2022/11/08 04:25:53;;;;;;;8.30;2.15;;;14.30;99.90;;;;;;5020007;28;20065;-86
2022/11/08 04:28:23;;;;;;;6.88;1.95;;;14.30;99.90;;;;;;5018388;28;20120;-87
2022/11/08 04:30:53;;;;;;;6.13;1.98;;;14.30;99.90;;;;;;5022194;28;20095;-86
2022/11/08 04:33:20;;;;;;;10.82;2.33;;;14.30;99.90;;;;;;5000765;28;20045;-86
2022/11/08 04:35:47;;;;;;;8.77;2.08;;;14.20;99.90;;;;;;5019614;28;20066;-86
2022/11/08 04:38:14;;;;;;;6.65;2.28;;;14.20;99.90;;;;;;5015509;28;20052;-87
2022/11/08 04:40:42;;;;;;;6.95;2.33;;;14.20;99.90;;;;;;5016179;28;20038;-87
2022/11/08 04:43:11;;;;;;;8.27;2.05;;;14.20;99.90;;;;;;5017369;28;20040;-87
2022/11/08 04:45:38;;;;;;;6.18;1.98;;;14.20;99.90;;;;;;5016049;28;20045;-86
2022/11/08 04:48:06;;;;;;;7.80;2.28;;;14.20;99.90;;;;;;5003579;28;20055;-86
2022/11/08 04:50:33;;;;;;;10.88;1.98;;;14.20;99.90;;;;;;5014384;28;20053;-86
2022/11/08 04:53:00;;;;;;;7.47;2.00;;;14.20;99.90;;;;;;5017539;28;20136;-86
2022/11/08 04:55:27;;;;;;;6.22;2.08;;;14.20;99.90;;;;;;5015731;28;20037;-86
2022/11/08 04:57:58;;;;;;;7.18;1.90;;;14.20;99.90;;;;;;5016887;28;20124;-86
2022/11/08 05:00:26;;;;;;;5.75;1.80;;;14.20;99.90;;;;;;5018360;28;20138;-87
2022/11/08 05:02:53;;;;;;;7.30;2.20;;;14.30;99.90;;;;;;5004090;28;20531;-86
2022/11/08 05:05:20;;;;;;;8.90;2.05;;;14.20;99.90;;;;;;5015711;28;20535;-86
2022/11/08 05:07:47;;;;;;;6.78;1.77;;;14.30;99.90;;;;;;5028051;28;20061;-87
2022/11/08 05:10:14;;;;;;;13.63;2.20;;;14.20;99.90;;;;;;5019686;28;20111;-91
2022/11/08 05:12:41;;;;;;;6.70;1.80;;;14.30;99.90;;;;;;5017668;28;20048;-86
2022/11/08 05:15:10;;;;;;;6.57;1.73;;;14.30;99.90;;;;;;5013157;28;20054;-85
2022/11/08 05:17:37;;;;;;;5.03;1.52;;;14.30;99.90;;;;;;5016851;28;20052;-90
2022/11/08 05:25:38;;;;;;;8.98;1.90;;;14.30;99.90;;;;;;5014293;28;20038;-86
2022/11/08 05:28:06;;;;;;;11.70;2.13;;;14.30;99.90;;;;;;5017108;28;20053;-87
2022/11/08 05:30:34;;;;;;;8.30;1.60;;;14.30;99.90;;;;;;5000767;28;20166;-88
2022/11/08 05:33:01;;;;;;;7.28;1.90;;;14.30;99.90;;;;;;5009693;28;20057;-88
2022/11/08 05:35:28;;;;;;;4.40;2.10;;;14.30;99.90;;;;;;5016036;28;20034;-85
2022/11/08 05:37:55;;;;;;;4.45;1.83;;;14.20;99.90;;;;;;5019105;28;20056;-87
2022/11/08 05:40:21;;;;;;;6.35;2.30;;;14.20;99.90;;;;;;5014037;28;20517;-81
2022/11/08 05:42:48;;;;;;;5.43;2.05;;;14.30;99.90;;;;;;5017696;28;20045;-82
2022/11/08 05:45:15;;;;;;;5.85;2.08;;;14.30;99.90;;;;;;5014266;28;20051;-82
2022/11/08 05:47:46;;;;;;;8.85;2.10;;;14.30;99.90;;;;;;5017318;28;20046;-82
2022/11/08 05:50:12;;;;;;;6.25;1.90;;;14.30;99.90;;;;;;5004740;28;20054;-81
2022/11/08 05:52:40;;;;;;;5.38;1.98;;;14.30;99.90;;;;;;5016344;28;20045;-81
2022/11/08 05:55:07;;;;;;;6.78;2.20;;;14.20;99.90;;;;;;5016843;28;20138;-81
2022/11/08 05:57:34;;;;;;;5.25;2.20;;;14.30;99.90;;;;;;5014354;28;20045;-83
2022/11/08 06:00:03;;;;;;;7.15;1.90;;;14.20;99.90;;;;;;5016185;28;20052;-91
2022/11/08 06:02:38;;;;;;;6.72;2.10;;;14.20;99.90;;;;;;5017410;28;20057;-88
2022/11/08 06:05:08;;;;;;;6.50;2.47;;;14.30;99.90;;;;;;5012596;28;20038;-91
2022/11/08 06:07:38;;;;;;;5.35;1.85;;;14.30;99.90;;;;;;5017251;28;20417;-89
2022/11/08 06:10:05;;;;;;;5.75;2.05;;;14.20;99.90;;;;;;5019390;28;20045;-91
2022/11/08 06:12:32;;;;;;;4.93;1.70;;;14.30;99.90;;;;;;5018397;28;20112;-91
2022/11/08 06:14:59;;;;;;;4.95;1.80;;;14.20;99.90;;;;;;5015541;28;20038;-91
2022/11/08 06:17:27;;;;;;;5.50;1.98;;;14.30;99.90;;;;;;5019034;28;20775;-93
2022/11/08 06:19:59;;;;;;;4.15;1.70;;;14.30;99.90;;;;;;5024528;28;20037;-91
2022/11/08 06:22:32;;;;;;;5.10;1.75;;;14.30;99.90;;;;;;5037667;28;20041;-91
2022/11/08 06:24:59;;;;;;;5.60;1.67;;;14.30;99.90;;;;;;5024164;28;20041;-90
2022/11/08 06:27:28;;;;;;;6.70;1.67;;;14.30;99.90;;;;;;5026188;28;20069;-91
2022/11/08 06:29:55;;;;;;;7.68;2.08;;;14.30;99.90;;;;;;5019240;28;20509;-90
2022/11/08 06:32:22;;;;;;;5.35;1.70;;;14.30;99.90;;;;;;5022721;28;20052;-92
2022/11/08 06:34:49;;;;;;;5.00;1.55;;;14.30;99.90;;;;;;5023959;28;20045;-91
2022/11/08 06:37:16;;;;;;;5.22;1.75;;;14.30;99.90;;;;;;5025846;28;20041;-93
2022/11/08 06:39:45;;;;;;;6.97;1.60;;;14.30;99.90;;;;;;5028826;28;20101;-94
2022/11/08 06:42:13;;;;;;;8.00;1.75;;;14.30;99.90;;;;;;5028743;28;20042;-92
2022/11/08 06:44:52;;;;;;;3.50;1.52;;;14.30;99.90;;;;;;5013794;28;20049;-94
2022/11/08 06:59:20;;;;;;;4.38;1.50;;;14.40;99.90;;;;;;4926440;29;20060;-93
2022/11/08 07:09:40;;;;;;;4.43;1.50;;;14.30;99.90;;;;;;4880213;29;20128;-93
2022/11/08 07:12:33;;;;;;;5.32;1.42;;;14.40;99.90;;;;;;4872855;29;20211;-93
2022/11/08 07:46:07;;;;;;;4.40;1.55;;;14.60;99.90;;;;;;5620189;22;20551;-90
2022/11/08 07:48:42;;;;;;;5.30;1.40;;;14.60;99.90;;;;;;5066531;28;20529;-93
2022/11/08 07:51:09;;;;;;;5.90;1.58;;;14.60;99.90;;;;;;5065977;28;20102;-91
2022/11/08 07:53:52;;;;;;;4.55;1.40;;;14.60;99.90;;;;;;5057865;28;20048;-91
2022/11/08 07:56:24;;;;;;;4.38;1.38;;;14.70;99.90;;;;;;5060481;28;20041;-93
2022/11/08 07:58:54;;;;;;;4.53;1.70;;;14.70;99.90;;;;;;5062967;28;20037;-92
2022/11/08 08:01:25;;;;;;;5.00;1.80;;;14.70;99.90;;;;;;5061180;28;20068;-90
2022/11/08 08:03:57;;;;;;;4.72;1.25;;;14.70;99.90;;;;;;5049708;28;20249;-88
2022/11/08 08:06:25;;;;;;;3.58;1.50;;;14.70;99.90;;;;;;5058318;28;20080;-91
2022/11/08 08:08:54;;;;;;;7.28;1.85;;;14.70;99.90;;;;;;5061671;28;20037;-91
2022/11/08 08:11:21;;;;;;;4.78;1.80;;;14.90;99.90;;;;;;5063534;28;20168;-91
2022/11/08 08:13:51;;;;;;;4.60;1.40;;;14.80;99.90;;;;;;5051628;28;20126;-92
2022/11/08 08:16:18;;;;;;;4.18;1.63;;;14.90;99.90;;;;;;5049657;28;20060;-91
2022/11/08 08:18:49;;;;;;;7.32;1.60;;;14.90;99.90;;;;;;5061316;28;20127;-92
2022/11/08 08:21:16;;;;;;;4.37;1.77;;;14.90;99.90;;;;;;5066805;28;21005;-90
2022/11/08 08:23:43;;;;;;;4.93;1.40;;;14.90;99.90;;;;;;5065985;28;20056;-91
2022/11/08 08:26:10;;;;;;;6.93;1.60;;;14.90;99.90;;;;;;5064022;28;20040;-92
2022/11/08 08:28:42;;;;;;;5.38;1.25;;;15.00;99.90;;;;;;5060586;28;20068;-92
2022/11/08 08:31:10;;;;;;;4.07;1.40;;;14.90;99.90;;;;;;5063748;28;20105;-90
2022/11/08 08:33:37;;;;;;;5.47;1.52;;;15.00;99.90;;;;;;5064929;28;20087;-90
2022/11/08 08:36:06;;;;;;;3.45;1.30;;;15.00;99.90;;;;;;5062824;28;20041;-89
2022/11/08 08:38:34;;;;;;;4.95;1.75;;;15.00;99.90;;;;;;5044671;28;20432;-91
2022/11/08 08:41:04;;;;;;;4.18;1.40;;;15.00;99.90;;;;;;5062808;28;20036;-92
2022/11/08 08:43:32;;;;;;;6.10;1.88;;;15.00;99.90;;;;;;5064992;28;20044;-92
2022/11/08 08:46:00;;;;;;;3.53;1.60;;;15.10;99.90;;;;;;5062896;28;20044;-90
2022/11/08 08:48:27;;;;;;;4.60;1.50;;;15.10;99.90;;;;;;5060673;28;20067;-92
2022/11/08 08:50:54;;;;;;;4.10;1.63;;;15.10;99.90;;;;;;5059863;28;20048;-92
2022/11/08 08:53:22;;;;;;;5.32;1.30;;;15.10;99.90;;;;;;5064081;28;20098;-91
2022/11/08 08:55:51;;;;;;;3.85;1.50;;;15.20;99.90;;;;;;5042573;28;20040;-92
2022/11/08 08:58:18;;;;;;;3.45;1.20;;;15.20;99.90;;;;;;5059041;28;20520;-90
2022/11/08 09:00:45;;;;;;;4.30;1.17;;;15.20;99.90;;;;;;5047308;28;20400;-92
2022/11/08 09:03:14;;;;;;;4.72;1.38;;;15.20;99.90;;;;;;5044335;28;20045;-90
2022/11/08 09:05:43;;;;;;;3.58;1.30;;;15.20;99.90;;;;;;5055522;28;20036;-91
2022/11/08 09:08:10;;;;;;;4.60;1.40;;;15.20;99.90;;;;;;5056632;28;20132;-92
2022/11/08 09:10:38;;;;;;;3.88;1.73;;;15.20;99.90;;;;;;5063681;28;20098;-90
2022/11/08 09:13:05;;;;;;;9.02;1.67;;;15.20;99.90;;;;;;5044730;28;20048;-90
2022/11/08 09:15:33;;;;;;;3.03;1.20;;;15.20;99.90;;;;;;5064867;28;20044;-91
2022/11/08 09:18:00;;;;;;;3.38;1.30;;;15.20;99.90;;;;;;5062107;28;20036;-91
2022/11/08 09:20:27;;;;;;;3.63;1.48;;;15.30;99.90;;;;;;5042296;28;20076;-92
2022/11/08 09:22:54;;;;;;;4.90;1.63;;;15.30;99.90;;;;;;5062049;28;20102;-90
2022/11/08 09:25:24;;;;;;;5.20;1.67;;;15.30;99.90;;;;;;5061729;28;20044;-90
2022/11/08 09:27:54;;;;;;;5.93;1.42;;;15.30;99.90;;;;;;5118741;22;20053;-86
2022/11/08 09:30:21;;;;;;;4.50;1.60;;;15.30;99.90;;;;;;5068397;28;20044;-86
2022/11/08 09:32:48;;;;;;;3.25;1.70;;;15.30;99.90;;;;;;5059097;28;20115;-91
2022/11/08 09:35:15;;;;;;;3.35;1.50;;;15.40;99.90;;;;;;5062732;28;20127;-89
2022/11/08 09:37:42;;;;;;;3.78;1.58;;;15.40;99.90;;;;;;5057778;28;20511;-90
2022/11/08 09:40:15;;;;;;;6.68;1.70;;;15.40;99.90;;;;;;5062851;28;20040;-90
2022/11/08 09:42:55;;;;;;;4.35;1.40;;;15.40;99.90;;;;;;5044614;28;20148;-90
2022/11/08 09:45:25;;;;;;;5.22;1.60;;;15.40;99.90;;;;;;5057683;28;20044;-84
2022/11/08 09:47:56;;;;;;;3.65;1.38;;;15.40;99.90;;;;;;5063533;28;20111;-91
2022/11/08 09:50:27;;;;;;;5.22;1.95;;;15.40;99.90;;;;;;5062300;28;20045;-89
2022/11/08 09:53:01;;;;;;;5.20;1.52;;;15.40;99.90;;;;;;5061221;28;20067;-90
2022/11/08 09:55:31;;;;;;;3.85;1.42;;;15.50;99.90;;;;;;5044784;28;20150;-90
2022/11/08 09:58:05;;;;;;;3.40;1.48;;;15.50;99.90;;;;;;5041194;28;20049;-90
2022/11/08 10:00:34;;;;;;;4.82;1.58;;;15.50;99.90;;;;;;5061370;28;20049;-90
2022/11/08 10:03:02;;;;;;;4.40;1.50;;;15.50;99.90;;;;;;5058961;28;20056;-89
2022/11/08 10:05:40;;;;;;;4.75;1.80;;;15.50;99.90;;;;;;5054827;28;20040;-84
2022/11/08 10:08:11;;;;;;;6.50;1.80;;;15.50;99.90;;;;;;5061697;28;20068;-89
2022/11/08 10:11:11;;;;;;;6.50;1.50;;;15.50;99.90;;;;;;5041500;28;20063;-90
2022/11/08 10:13:48;;;;;;;4.70;1.55;;;15.60;99.90;;;;;;4981678;28;20054;-89
2022/11/08 10:16:21;;;;;;;5.80;1.27;;;15.60;99.90;;;;;;5046708;28;20061;-89
2022/11/08 10:19:10;;;;;;;5.78;1.40;;;15.60;99.90;;;;;;5059298;28;20078;-89
2022/11/08 10:21:52;;;;;;;3.80;1.42;;;15.60;99.90;;;;;;5061080;28;20045;-88
2022/11/08 10:24:21;;;;;;;;;;;15.60;99.90;;;;;;5065520;28;20516;-89
2022/11/08 10:26:49;;;;;;;7.75;1.70;;;15.50;99.90;;;;;;5062453;28;19924;-89
2022/11/08 10:29:20;;;;;;;6.47;1.50;;;15.60;99.90;;;;;;5058514;28;20072;-89
2022/11/08 10:31:48;;;;;;;3.65;1.60;;;15.60;99.90;;;;;;5065649;28;20585;-87
2022/11/08 10:34:18;;;;;;;7.55;1.55;;;15.60;99.90;;;;;;5061146;28;20044;-89
2022/11/08 10:36:47;;;;;;;4.53;1.90;;;15.60;99.90;;;;;;5058619;28;20068;-89
2022/11/08 10:39:16;;;;;;;6.18;1.85;;;15.70;99.90;;;;;;5053890;28;20539;-91
2022/11/08 10:41:47;;;;;;;5.75;1.58;;;15.60;99.90;;;;;;5065579;28;20115;-88
2022/11/08 10:47:05;;;;;;;4.22;1.45;;;15.70;99.90;;;;;;5062998;28;20134;-92
2022/11/08 10:49:33;;;;;;;5.57;1.73;;;15.70;99.90;;;;;;5047215;28;20139;-91
2022/11/08 10:52:03;;;;;;;7.15;1.85;;;15.70;99.90;;;;;;5061284;28;20041;-92
2022/11/08 10:54:57;;;;;;;7.15;1.63;;;15.70;99.90;;;;;;5059427;28;20124;-93
2022/11/08 10:57:35;;;;;;;4.65;1.60;;;15.70;99.90;;;;;;5051077;28;20413;-93
2022/11/08 11:00:30;;;;;;;4.10;1.50;;;15.70;99.90;;;;;;5056595;28;20050;-91
2022/11/08 11:03:06;;;;;;;5.32;1.45;;;15.80;99.90;;;;;;5064935;28;20086;-93
2022/11/08 11:05:37;;;;;;;6.90;1.65;;;15.70;99.90;;;;;;5047105;28;20048;-92
2022/11/08 11:08:21;;;;;;;3.75;1.40;;;15.80;99.90;;;;;;5046196;28;20502;-91
2022/11/08 11:10:51;;;;;;;5.03;1.55;;;15.80;99.90;;;;;;5060840;28;20094;-93
2022/11/08 11:13:21;;;;;;;5.88;1.77;;;15.80;99.70;;;;;;5060575;28;20049;-94
2022/11/08 11:16:04;;;;;;;4.97;1.50;;;15.80;99.90;;;;;;5060161;28;20823;-92
2022/11/08 11:18:39;;;;;;;4.25;1.60;;;15.80;99.90;;;;;;5044792;28;20040;-92
2022/11/08 11:21:16;;;;;;;5.85;1.80;;;15.80;99.90;;;;;;5061432;28;20045;-92
2022/11/08 11:23:51;;;;;;;;;;;15.80;99.90;;;;;;5062442;28;20493;-93
2022/11/08 11:26:31;;;;;;;6.70;1.57;;;15.90;99.90;;;;;;5040487;28;19963;-92
2022/11/08 11:29:15;;;;;;;4.50;1.73;;;15.90;99.90;;;;;;5047396;28;20060;-92
2022/11/08 11:31:46;;;;;;;4.28;1.60;;;15.90;99.90;;;;;;5063063;28;20033;-94
2022/11/08 11:34:37;;;;;;;8.25;2.03;;;15.90;99.90;;;;;;5063120;28;20072;-93
2022/11/08 11:37:11;;;;;;;6.47;1.80;;;15.90;99.60;;;;;;5064458;28;20033;-93
2022/11/08 11:39:44;;;;;;;4.60;1.70;;;15.90;99.90;;;;;;5067217;28;20072;-93
2022/11/08 11:42:14;;;;;;;9.10;1.75;;;15.90;99.90;;;;;;5047014;28;20114;-93
2022/11/08 11:44:53;;;;;;;4.57;1.85;;;16.00;99.90;;;;;;5063401;28;20094;-92
2022/11/08 11:47:31;;;;;;;7.22;1.55;;;16.00;99.90;;;;;;5048996;28;20072;-93
2022/11/08 11:50:06;;;;;;;5.68;1.48;;;16.00;99.90;;;;;;5064402;28;20059;-92
2022/11/08 11:52:33;;;;;;;6.45;1.60;;;16.00;99.90;;;;;;5045459;28;20060;-93
2022/11/08 11:55:00;;;;;;;6.47;1.83;;;16.00;99.90;;;;;;5047156;28;20041;-93
2022/11/08 11:57:35;;;;;;;7.03;1.52;;;16.00;99.90;;;;;;5063423;28;20048;-93
2022/11/08 12:00:11;;;;;;;6.68;1.92;;;16.00;99.90;;;;;;5058803;28;20075;-92
2022/11/08 12:03:14;;;;;;;8.35;2.00;;;16.00;99.90;;;;;;5066986;28;20052;-93
2022/11/08 12:06:09;;;;;;;5.78;1.90;;;16.00;99.90;;;;;;5044628;28;20048;-92
2022/11/08 12:08:58;;;;;;;5.80;1.90;;;16.10;99.90;;;;;;5057175;28;20044;-93
2022/11/08 12:11:49;;;;;;;4.45;1.52;;;16.10;99.90;;;;;;5062291;28;20052;-93
2022/11/08 12:14:31;;;;;;;5.07;1.65;;;16.10;99.90;;;;;;5041722;28;20067;-92
2022/11/08 12:17:04;;;;;;;6.78;1.83;;;16.10;99.90;;;;;;5059563;28;20044;-92
2022/11/08 12:19:41;;;;;;;4.25;1.70;;;16.20;99.90;;;;;;5060243;28;20413;-92
2022/11/08 12:22:27;;;;;;;5.95;1.75;;;16.20;99.90;;;;;;5063244;28;20110;-93
2022/11/08 12:25:01;;;;;;;13.07;2.05;;;16.20;99.90;;;;;;5064655;28;20063;-94
2022/11/08 12:28:05;;;;;;;;;;;;;;;;;;;;;
2022/11/08 12:30:53;;;;;;;5.47;1.85;;;16.20;99.90;;;;;;5047777;28;20566;-93
2022/11/08 12:33:30;;;;;;;4.32;1.73;;;16.20;99.90;;;;;;5063319;28;20128;-94
2022/11/08 12:36:10;;;;;;;10.00;1.90;;;16.30;99.90;;;;;;5060734;28;20128;-95
2022/11/08 12:38:47;;;;;;;5.90;1.95;;;16.30;99.90;;;;;;5063985;28;20061;-93
2022/11/08 12:41:21;;;;;;;5.25;2.05;;;16.30;99.90;;;;;;5063296;28;20048;-90
2022/11/08 12:44:13;;;;;;;7.18;2.08;;;16.30;99.90;;;;;;5065363;28;20040;-93
2022/11/08 12:46:45;;;;;;;6.30;2.00;;;16.30;99.90;;;;;;5064216;28;20045;-91
2022/11/08 12:49:30;;;;;;;7.47;1.90;;;16.30;99.90;;;;;;5046017;28;20499;-92
2022/11/08 12:52:08;;;;;;;6.03;2.08;;;16.30;99.90;;;;;;5061775;28;20088;-92
2022/11/08 12:54:39;;;;;;;8.20;2.30;;;16.30;99.90;;;;;;5061580;28;20102;-93
2022/11/08 12:57:11;;;;;;;8.38;2.00;;;16.30;99.90;;;;;;5063522;28;20362;-93
2022/11/08 12:59:42;;;;;;;5.47;1.92;;;16.30;99.90;;;;;;5046507;28;20071;-92
2022/11/08 13:02:16;;;;;;;6.60;2.05;;;16.30;99.90;;;;;;5048528;28;20044;-92
2022/11/08 13:04:49;;;;;;;5.88;2.10;;;16.30;99.90;;;;;;5059878;28;20060;-93
2022/11/08 13:07:29;;;;;;;5.05;2.00;;;16.30;99.90;;;;;;5063728;28;20117;-93
2022/11/08 13:10:04;;;;;;;7.15;2.38;;;16.30;99.90;;;;;;5063984;28;20516;-94
2022/11/08 13:12:48;;;;;;;9.23;1.95;;;16.30;99.90;;;;;;5058575;28;20123;-93
2022/11/08 13:15:29;;;;;;;;;;;;;;;;;;;;;
2022/11/08 13:18:22;;;;;;;6.60;1.90;;;16.30;99.90;;;;;;5046202;28;20041;-94
2022/11/08 13:20:49;;;;;;;5.75;2.05;;;16.30;99.90;;;;;;5061141;28;20049;-93
2022/11/08 13:23:22;;;;;;;6.18;2.13;;;16.30;99.90;;;;;;5044675;28;20489;-92
2022/11/08 13:25:51;;;;;;;8.30;1.75;;;16.30;99.90;;;;;;5039839;28;20045;-93
2022/11/08 13:28:44;;;;;;;7.28;1.88;;;16.30;99.90;;;;;;5045184;28;20106;-95
2022/11/08 13:31:26;;;;;;;4.57;1.90;;;16.30;99.90;;;;;;5061255;28;20045;-95
2022/11/08 13:34:23;;;;;;;5.57;1.90;;;16.30;99.90;;;;;;5046496;28;20055;-93
2022/11/08 13:37:08;;;;;;;6.72;2.00;;;16.40;99.90;;;;;;5060318;28;20036;-91
2022/11/08 13:39:52;;;;;;;6.30;2.03;;;16.30;99.90;;;;;;5047270;28;20405;-94
2022/11/08 13:42:37;;;;;;;5.05;1.77;;;16.30;99.90;;;;;;5063741;28;20041;-92
2022/11/08 13:45:26;;;;;;;4.85;1.90;;;16.30;99.90;;;;;;5036702;28;20094;-93
2022/11/08 13:47:58;;;;;;;6.70;2.22;;;16.30;99.90;;;;;;5042409;28;20064;-94
2022/11/08 13:51:01;;;;;;;6.57;2.08;;;16.30;99.90;;;;;;5061891;28;20087;-93
2022/11/08 13:53:51;;;;;;;7.30;2.10;;;16.30;99.90;;;;;;5046221;28;20057;-94
2022/11/08 13:59:58;;;;;;;6.03;2.08;;;16.40;99.90;;;;;;5072820;22;20444;-88
2022/11/08 14:02:41;;;;;;;8.02;1.83;;;16.40;99.90;;;;;;5059884;28;20509;-88
2022/11/08 14:05:26;;;;;;;4.25;1.80;;;16.40;99.90;;;;;;5055921;28;20420;-87
2022/11/08 14:08:18;;;;;;;8.80;2.08;;;16.40;99.90;;;;;;5047676;28;20125;-87
2022/11/08 14:11:22;;;;;;;5.63;1.65;;;16.40;99.90;;;;;;5040677;28;20056;-88
2022/11/08 14:14:25;;;;;;;7.88;2.00;;;16.40;99.90;;;;;;4996357;28;20076;-88
2022/11/08 14:17:09;;;;;;;8.52;2.45;;;16.40;99.90;;;;;;5054860;28;20040;-87
2022/11/08 14:19:39;;;;;;;9.35;2.00;;;16.40;99.90;;;;;;5044634;28;20045;-87
2022/11/08 14:22:13;;;;;;;7.43;2.08;;;16.40;99.90;;;;;;5047397;28;20055;-88
2022/11/08 14:24:40;;;;;;;7.63;2.10;;;16.40;99.90;;;;;;5038673;28;20080;-87
2022/11/08 14:27:07;;;;;;;6.32;2.15;;;16.40;99.90;;;;;;5036312;28;20042;-88
2022/11/08 14:29:34;;;;;;;8.30;1.73;;;16.40;99.90;;;;;;5021607;28;20426;-87
2022/11/08 14:32:02;;;;;;;5.90;2.00;;;16.40;99.90;;;;;;5035717;28;20046;-88